sensor_id;sensor_type;location;lat;lon;timestamp;P1;durP1;ratioP1;P2;durP2;ratioP2
13981;SDS011;7065;50.880;5.502;2022-08-19T00:00:23;24.63;;;22.52;;
13981;SDS011;7065;50.880;5.502;2022-08-19T00:02:49;24.23;;;22.02;;
13981;SDS011;7065;50.880;5.502;2022-08-19T00:05:15;24.25;;;22.15;;
13981;SDS011;7065;50.880;5.502;2022-08-19T00:07:42;23.70;;;21.60;;
13981;SDS011;7065;50.880;5.502;2022-08-19T00:10:09;24.92;;;22.80;;
13981;SDS011;7065;50.880;5.502;2022-08-19T00:12:36;24.35;;;22.30;;
13981;SDS011;7065;50.880;5.502;2022-08-19T00:15:04;26.77;;;24.38;;
13981;SDS011;7065;50.880;5.502;2022-08-19T00:17:31;26.83;;;24.52;;
13981;SDS011;7065;50.880;5.502;2022-08-19T00:19:56;27.23;;;24.70;;
13981;SDS011;7065;50.880;5.502;2022-08-19T00:22:22;26.50;;;24.20;;
13981;SDS011;7065;50.880;5.502;2022-08-19T00:24:48;29.35;;;26.75;;
13981;SDS011;7065;50.880;5.502;2022-08-19T00:27:14;27.77;;;25.17;;
13981;SDS011;7065;50.880;5.502;2022-08-19T00:29:40;28.00;;;25.42;;
13981;SDS011;7065;50.880;5.502;2022-08-19T00:32:06;25.17;;;22.88;;
13981;SDS011;7065;50.880;5.502;2022-08-19T00:34:31;30.17;;;27.40;;
13981;SDS011;7065;50.880;5.502;2022-08-19T00:36:57;28.92;;;26.38;;
13981;SDS011;7065;50.880;5.502;2022-08-19T00:39:24;28.50;;;26.00;;
13981;SDS011;7065;50.880;5.502;2022-08-19T00:41:50;26.55;;;24.00;;
13981;SDS011;7065;50.880;5.502;2022-08-19T00:44:18;25.88;;;23.50;;
13981;SDS011;7065;50.880;5.502;2022-08-19T00:46:45;25.38;;;23.13;;
13981;SDS011;7065;50.880;5.502;2022-08-19T00:49:20;27.50;;;25.00;;
13981;SDS011;7065;50.880;5.502;2022-08-19T00:51:51;27.50;;;24.98;;
13981;SDS011;7065;50.880;5.502;2022-08-19T00:54:22;28.13;;;25.48;;
13981;SDS011;7065;50.880;5.502;2022-08-19T00:56:48;27.27;;;24.67;;
13981;SDS011;7065;50.880;5.502;2022-08-19T00:59:15;27.00;;;24.55;;
13981;SDS011;7065;50.880;5.502;2022-08-19T01:01:42;29.73;;;27.02;;
13981;SDS011;7065;50.880;5.502;2022-08-19T01:04:09;30.27;;;27.38;;
13981;SDS011;7065;50.880;5.502;2022-08-19T01:06:35;30.13;;;27.33;;
13981;SDS011;7065;50.880;5.502;2022-08-19T01:09:02;28.33;;;25.73;;
13981;SDS011;7065;50.880;5.502;2022-08-19T01:11:30;31.20;;;28.42;;
13981;SDS011;7065;50.880;5.502;2022-08-19T01:14:01;30.85;;;27.95;;
13981;SDS011;7065;50.880;5.502;2022-08-19T01:16:27;29.60;;;27.00;;
13981;SDS011;7065;50.880;5.502;2022-08-19T01:18:54;31.50;;;28.60;;
13981;SDS011;7065;50.880;5.502;2022-08-19T01:24:04;33.60;;;30.50;;
13981;SDS011;7065;50.880;5.502;2022-08-19T01:26:30;32.70;;;29.80;;
13981;SDS011;7065;50.880;5.502;2022-08-19T01:28:57;29.48;;;26.88;;
13981;SDS011;7065;50.880;5.502;2022-08-19T01:31:27;29.08;;;26.38;;
13981;SDS011;7065;50.880;5.502;2022-08-19T01:33:57;32.70;;;29.70;;
13981;SDS011;7065;50.880;5.502;2022-08-19T01:36:25;32.95;;;29.88;;
13981;SDS011;7065;50.880;5.502;2022-08-19T01:38:55;31.35;;;28.33;;
13981;SDS011;7065;50.880;5.502;2022-08-19T01:41:22;36.17;;;32.67;;
13981;SDS011;7065;50.880;5.502;2022-08-19T01:43:48;33.17;;;29.88;;
13981;SDS011;7065;50.880;5.502;2022-08-19T01:46:15;33.03;;;29.92;;
13981;SDS011;7065;50.880;5.502;2022-08-19T01:48:42;35.47;;;31.95;;
13981;SDS011;7065;50.880;5.502;2022-08-19T01:51:09;34.65;;;31.25;;
13981;SDS011;7065;50.880;5.502;2022-08-19T01:53:37;33.65;;;30.25;;
13981;SDS011;7065;50.880;5.502;2022-08-19T01:56:03;34.10;;;30.80;;
13981;SDS011;7065;50.880;5.502;2022-08-19T01:58:32;33.65;;;30.35;;
13981;SDS011;7065;50.880;5.502;2022-08-19T02:01:07;30.60;;;27.70;;
13981;SDS011;7065;50.880;5.502;2022-08-19T02:03:33;29.98;;;27.17;;
13981;SDS011;7065;50.880;5.502;2022-08-19T02:06:01;31.42;;;28.45;;
13981;SDS011;7065;50.880;5.502;2022-08-19T02:08:28;32.00;;;29.02;;
13981;SDS011;7065;50.880;5.502;2022-08-19T02:10:55;31.35;;;28.20;;
13981;SDS011;7065;50.880;5.502;2022-08-19T02:13:23;30.90;;;27.95;;
13981;SDS011;7065;50.880;5.502;2022-08-19T02:15:51;36.50;;;32.63;;
13981;SDS011;7065;50.880;5.502;2022-08-19T02:18:17;41.08;;;36.63;;
13981;SDS011;7065;50.880;5.502;2022-08-19T02:20:43;36.25;;;32.50;;
13981;SDS011;7065;50.880;5.502;2022-08-19T02:23:10;41.08;;;36.65;;
13981;SDS011;7065;50.880;5.502;2022-08-19T02:25:37;41.08;;;36.35;;
13981;SDS011;7065;50.880;5.502;2022-08-19T02:28:03;36.97;;;33.20;;
13981;SDS011;7065;50.880;5.502;2022-08-19T02:30:30;36.30;;;32.45;;
13981;SDS011;7065;50.880;5.502;2022-08-19T02:32:56;38.92;;;34.47;;
13981;SDS011;7065;50.880;5.502;2022-08-19T02:35:22;34.92;;;31.25;;
13981;SDS011;7065;50.880;5.502;2022-08-19T02:37:49;35.03;;;31.30;;
13981;SDS011;7065;50.880;5.502;2022-08-19T02:40:33;43.55;;;38.42;;
13981;SDS011;7065;50.880;5.502;2022-08-19T02:42:59;45.33;;;38.10;;
13981;SDS011;7065;50.880;5.502;2022-08-19T02:45:27;35.42;;;31.10;;
13981;SDS011;7065;50.880;5.502;2022-08-19T02:47:56;44.45;;;38.60;;
13981;SDS011;7065;50.880;5.502;2022-08-19T02:50:22;41.45;;;34.85;;
13981;SDS011;7065;50.880;5.502;2022-08-19T02:52:48;36.63;;;32.80;;
13981;SDS011;7065;50.880;5.502;2022-08-19T02:55:14;36.20;;;32.40;;
13981;SDS011;7065;50.880;5.502;2022-08-19T02:57:39;36.55;;;32.60;;
13981;SDS011;7065;50.880;5.502;2022-08-19T03:00:07;48.03;;;38.78;;
13981;SDS011;7065;50.880;5.502;2022-08-19T03:02:37;42.92;;;36.65;;
13981;SDS011;7065;50.880;5.502;2022-08-19T03:05:03;38.35;;;34.15;;
13981;SDS011;7065;50.880;5.502;2022-08-19T03:07:30;40.40;;;35.03;;
13981;SDS011;7065;50.880;5.502;2022-08-19T03:09:56;41.08;;;35.85;;
13981;SDS011;7065;50.880;5.502;2022-08-19T03:12:22;43.25;;;38.50;;
13981;SDS011;7065;50.880;5.502;2022-08-19T03:14:47;42.35;;;36.17;;
13981;SDS011;7065;50.880;5.502;2022-08-19T03:17:13;44.70;;;39.22;;
13981;SDS011;7065;50.880;5.502;2022-08-19T03:19:39;48.28;;;39.78;;
13981;SDS011;7065;50.880;5.502;2022-08-19T03:22:05;56.03;;;43.25;;
13981;SDS011;7065;50.880;5.502;2022-08-19T03:24:31;42.05;;;36.10;;
13981;SDS011;7065;50.880;5.502;2022-08-19T03:26:57;36.38;;;32.45;;
13981;SDS011;7065;50.880;5.502;2022-08-19T03:29:24;32.83;;;29.27;;
13981;SDS011;7065;50.880;5.502;2022-08-19T03:31:54;32.67;;;29.25;;
13981;SDS011;7065;50.880;5.502;2022-08-19T03:34:21;31.88;;;28.60;;
13981;SDS011;7065;50.880;5.502;2022-08-19T03:36:51;29.48;;;26.58;;
13981;SDS011;7065;50.880;5.502;2022-08-19T03:39:19;33.95;;;30.45;;
13981;SDS011;7065;50.880;5.502;2022-08-19T03:41:46;40.78;;;34.00;;
13981;SDS011;7065;50.880;5.502;2022-08-19T03:44:15;40.33;;;34.95;;
13981;SDS011;7065;50.880;5.502;2022-08-19T03:46:45;40.75;;;34.08;;
13981;SDS011;7065;50.880;5.502;2022-08-19T03:49:15;38.55;;;33.17;;
13981;SDS011;7065;50.880;5.502;2022-08-19T03:51:42;43.25;;;34.60;;
13981;SDS011;7065;50.880;5.502;2022-08-19T03:54:09;44.35;;;36.15;;
13981;SDS011;7065;50.880;5.502;2022-08-19T03:56:37;40.13;;;34.28;;
13981;SDS011;7065;50.880;5.502;2022-08-19T03:59:05;40.22;;;33.75;;
13981;SDS011;7065;50.880;5.502;2022-08-19T04:01:32;39.75;;;35.25;;
13981;SDS011;7065;50.880;5.502;2022-08-19T04:03:59;43.08;;;33.00;;
13981;SDS011;7065;50.880;5.502;2022-08-19T04:06:27;48.25;;;37.45;;
13981;SDS011;7065;50.880;5.502;2022-08-19T04:08:57;48.30;;;36.75;;
13981;SDS011;7065;50.880;5.502;2022-08-19T04:11:28;51.85;;;37.88;;
13981;SDS011;7065;50.880;5.502;2022-08-19T04:13:56;42.17;;;34.22;;
13981;SDS011;7065;50.880;5.502;2022-08-19T04:16:23;43.55;;;33.72;;
13981;SDS011;7065;50.880;5.502;2022-08-19T04:18:56;47.80;;;36.15;;
13981;SDS011;7065;50.880;5.502;2022-08-19T04:21:26;45.38;;;34.88;;
13981;SDS011;7065;50.880;5.502;2022-08-19T04:23:53;41.85;;;32.85;;
13981;SDS011;7065;50.880;5.502;2022-08-19T04:26:21;43.08;;;33.63;;
13981;SDS011;7065;50.880;5.502;2022-08-19T04:28:59;43.50;;;32.97;;
13981;SDS011;7065;50.880;5.502;2022-08-19T04:31:28;57.63;;;39.72;;
13981;SDS011;7065;50.880;5.502;2022-08-19T04:33:56;64.05;;;44.22;;
13981;SDS011;7065;50.880;5.502;2022-08-19T04:36:25;75.50;;;46.13;;
13981;SDS011;7065;50.880;5.502;2022-08-19T04:38:56;75.60;;;44.33;;
13981;SDS011;7065;50.880;5.502;2022-08-19T04:41:23;56.63;;;38.83;;
13981;SDS011;7065;50.880;5.502;2022-08-19T04:44:08;54.28;;;38.00;;
13981;SDS011;7065;50.880;5.502;2022-08-19T04:46:34;48.75;;;35.90;;
13981;SDS011;7065;50.880;5.502;2022-08-19T04:49:00;45.22;;;35.92;;
13981;SDS011;7065;50.880;5.502;2022-08-19T04:51:27;56.53;;;40.72;;
13981;SDS011;7065;50.880;5.502;2022-08-19T04:53:56;55.60;;;39.67;;
13981;SDS011;7065;50.880;5.502;2022-08-19T04:56:22;54.30;;;39.65;;
13981;SDS011;7065;50.880;5.502;2022-08-19T04:58:51;55.13;;;39.25;;
13981;SDS011;7065;50.880;5.502;2022-08-19T05:01:18;48.63;;;34.95;;
13981;SDS011;7065;50.880;5.502;2022-08-19T05:03:48;48.83;;;35.00;;
13981;SDS011;7065;50.880;5.502;2022-08-19T05:06:15;49.47;;;36.00;;
13981;SDS011;7065;50.880;5.502;2022-08-19T05:08:42;58.63;;;40.30;;
13981;SDS011;7065;50.880;5.502;2022-08-19T05:13:36;76.75;;;46.88;;
13981;SDS011;7065;50.880;5.502;2022-08-19T05:16:02;69.28;;;44.17;;
13981;SDS011;7065;50.880;5.502;2022-08-19T05:18:28;68.20;;;44.72;;
13981;SDS011;7065;50.880;5.502;2022-08-19T05:21:14;62.40;;;42.15;;
13981;SDS011;7065;50.880;5.502;2022-08-19T05:24:01;57.75;;;40.75;;
13981;SDS011;7065;50.880;5.502;2022-08-19T05:26:27;54.95;;;37.88;;
13981;SDS011;7065;50.880;5.502;2022-08-19T05:28:53;55.58;;;38.10;;
13981;SDS011;7065;50.880;5.502;2022-08-19T05:31:19;64.10;;;42.95;;
13981;SDS011;7065;50.880;5.502;2022-08-19T05:33:45;55.08;;;39.05;;
13981;SDS011;7065;50.880;5.502;2022-08-19T05:36:11;53.22;;;36.88;;
13981;SDS011;7065;50.880;5.502;2022-08-19T05:38:38;46.20;;;33.35;;
13981;SDS011;7065;50.880;5.502;2022-08-19T05:41:07;54.75;;;38.22;;
13981;SDS011;7065;50.880;5.502;2022-08-19T05:43:37;56.72;;;37.42;;
13981;SDS011;7065;50.880;5.502;2022-08-19T05:46:04;69.82;;;44.22;;
13981;SDS011;7065;50.880;5.502;2022-08-19T05:48:31;76.80;;;47.80;;
13981;SDS011;7065;50.880;5.502;2022-08-19T05:50:58;75.45;;;47.42;;
13981;SDS011;7065;50.880;5.502;2022-08-19T05:53:28;88.68;;;52.25;;
13981;SDS011;7065;50.880;5.502;2022-08-19T05:55:53;85.85;;;51.75;;
13981;SDS011;7065;50.880;5.502;2022-08-19T05:58:19;86.65;;;53.30;;
13981;SDS011;7065;50.880;5.502;2022-08-19T06:00:45;91.10;;;54.45;;
13981;SDS011;7065;50.880;5.502;2022-08-19T06:03:11;87.03;;;52.13;;
13981;SDS011;7065;50.880;5.502;2022-08-19T06:05:37;85.05;;;52.55;;
13981;SDS011;7065;50.880;5.502;2022-08-19T06:08:02;76.53;;;49.28;;
13981;SDS011;7065;50.880;5.502;2022-08-19T06:10:29;70.20;;;44.63;;
13981;SDS011;7065;50.880;5.502;2022-08-19T06:12:55;71.85;;;47.20;;
13981;SDS011;7065;50.880;5.502;2022-08-19T06:15:21;66.32;;;44.30;;
13981;SDS011;7065;50.880;5.502;2022-08-19T06:17:50;70.32;;;46.30;;
13981;SDS011;7065;50.880;5.502;2022-08-19T06:20:16;64.38;;;44.35;;
13981;SDS011;7065;50.880;5.502;2022-08-19T06:22:44;64.28;;;41.25;;
13981;SDS011;7065;50.880;5.502;2022-08-19T06:25:12;59.08;;;41.10;;
13981;SDS011;7065;50.880;5.502;2022-08-19T06:27:39;59.05;;;39.40;;
13981;SDS011;7065;50.880;5.502;2022-08-19T06:30:05;51.53;;;37.95;;
13981;SDS011;7065;50.880;5.502;2022-08-19T06:32:32;55.63;;;37.58;;
13981;SDS011;7065;50.880;5.502;2022-08-19T06:34:58;54.13;;;37.67;;
13981;SDS011;7065;50.880;5.502;2022-08-19T06:37:24;51.50;;;35.95;;
13981;SDS011;7065;50.880;5.502;2022-08-19T06:39:50;58.13;;;39.17;;
13981;SDS011;7065;50.880;5.502;2022-08-19T06:42:16;53.25;;;37.75;;
13981;SDS011;7065;50.880;5.502;2022-08-19T06:44:44;53.22;;;35.92;;
13981;SDS011;7065;50.880;5.502;2022-08-19T06:47:13;50.58;;;35.92;;
13981;SDS011;7065;50.880;5.502;2022-08-19T06:49:40;53.78;;;35.70;;
13981;SDS011;7065;50.880;5.502;2022-08-19T06:52:07;49.90;;;34.67;;
13981;SDS011;7065;50.880;5.502;2022-08-19T06:54:36;50.03;;;35.13;;
13981;SDS011;7065;50.880;5.502;2022-08-19T06:57:02;48.08;;;35.38;;
13981;SDS011;7065;50.880;5.502;2022-08-19T06:59:29;49.25;;;35.85;;
13981;SDS011;7065;50.880;5.502;2022-08-19T07:01:57;50.05;;;34.38;;
13981;SDS011;7065;50.880;5.502;2022-08-19T07:04:26;46.63;;;34.25;;
13981;SDS011;7065;50.880;5.502;2022-08-19T07:06:57;47.85;;;34.70;;
13981;SDS011;7065;50.880;5.502;2022-08-19T07:09:27;42.22;;;32.55;;
13981;SDS011;7065;50.880;5.502;2022-08-19T07:11:54;48.95;;;33.72;;
13981;SDS011;7065;50.880;5.502;2022-08-19T07:14:23;44.40;;;31.80;;
13981;SDS011;7065;50.880;5.502;2022-08-19T07:16:52;46.17;;;31.75;;
13981;SDS011;7065;50.880;5.502;2022-08-19T07:19:20;42.15;;;29.27;;
13981;SDS011;7065;50.880;5.502;2022-08-19T07:21:48;38.15;;;27.13;;
13981;SDS011;7065;50.880;5.502;2022-08-19T07:24:18;37.47;;;27.33;;
13981;SDS011;7065;50.880;5.502;2022-08-19T07:26:45;34.95;;;26.08;;
13981;SDS011;7065;50.880;5.502;2022-08-19T07:29:12;36.35;;;27.33;;
13981;SDS011;7065;50.880;5.502;2022-08-19T07:31:38;38.85;;;26.80;;
13981;SDS011;7065;50.880;5.502;2022-08-19T07:34:04;35.88;;;25.77;;
13981;SDS011;7065;50.880;5.502;2022-08-19T07:36:34;34.53;;;25.65;;
13981;SDS011;7065;50.880;5.502;2022-08-19T07:39:04;33.10;;;23.73;;
13981;SDS011;7065;50.880;5.502;2022-08-19T07:41:34;34.80;;;24.67;;
13981;SDS011;7065;50.880;5.502;2022-08-19T07:44:02;30.15;;;23.60;;
13981;SDS011;7065;50.880;5.502;2022-08-19T07:46:30;31.77;;;23.80;;
13981;SDS011;7065;50.880;5.502;2022-08-19T07:48:57;30.70;;;23.67;;
13981;SDS011;7065;50.880;5.502;2022-08-19T07:51:23;31.15;;;23.73;;
13981;SDS011;7065;50.880;5.502;2022-08-19T07:53:49;27.77;;;21.70;;
13981;SDS011;7065;50.880;5.502;2022-08-19T07:56:16;26.85;;;22.42;;
13981;SDS011;7065;50.880;5.502;2022-08-19T07:58:44;28.85;;;21.58;;
13981;SDS011;7065;50.880;5.502;2022-08-19T08:01:12;26.88;;;21.05;;
13981;SDS011;7065;50.880;5.502;2022-08-19T08:03:43;31.88;;;22.98;;
13981;SDS011;7065;50.880;5.502;2022-08-19T08:06:28;29.35;;;20.88;;
13981;SDS011;7065;50.880;5.502;2022-08-19T08:09:12;24.48;;;19.88;;
13981;SDS011;7065;50.880;5.502;2022-08-19T08:11:51;27.80;;;22.45;;
13981;SDS011;7065;50.880;5.502;2022-08-19T08:14:28;26.15;;;21.27;;
13981;SDS011;7065;50.880;5.502;2022-08-19T08:16:57;25.88;;;21.58;;
13981;SDS011;7065;50.880;5.502;2022-08-19T08:19:24;25.50;;;19.58;;
13981;SDS011;7065;50.880;5.502;2022-08-19T08:21:55;27.75;;;20.52;;
13981;SDS011;7065;50.880;5.502;2022-08-19T08:24:22;19.10;;;16.33;;
13981;SDS011;7065;50.880;5.502;2022-08-19T08:26:49;21.58;;;16.65;;
13981;SDS011;7065;50.880;5.502;2022-08-19T08:29:15;19.85;;;15.77;;
13981;SDS011;7065;50.880;5.502;2022-08-19T08:31:41;17.25;;;15.00;;
13981;SDS011;7065;50.880;5.502;2022-08-19T08:34:09;22.15;;;15.98;;
13981;SDS011;7065;50.880;5.502;2022-08-19T08:36:36;20.85;;;16.35;;
13981;SDS011;7065;50.880;5.502;2022-08-19T08:39:07;21.77;;;14.88;;
13981;SDS011;7065;50.880;5.502;2022-08-19T08:42:04;14.63;;;13.07;;
13981;SDS011;7065;50.880;5.502;2022-08-19T08:47:05;14.85;;;12.90;;
13981;SDS011;7065;50.880;5.502;2022-08-19T08:49:52;18.42;;;14.00;;
13981;SDS011;7065;50.880;5.502;2022-08-19T08:52:28;14.07;;;12.02;;
13981;SDS011;7065;50.880;5.502;2022-08-19T08:55:03;17.80;;;13.65;;
13981;SDS011;7065;50.880;5.502;2022-08-19T09:00:24;16.63;;;12.95;;
13981;SDS011;7065;50.880;5.502;2022-08-19T09:02:55;15.25;;;10.77;;
13981;SDS011;7065;50.880;5.502;2022-08-19T09:05:23;15.93;;;13.30;;
13981;SDS011;7065;50.880;5.502;2022-08-19T09:08:01;16.10;;;13.18;;
13981;SDS011;7065;50.880;5.502;2022-08-19T09:10:37;14.02;;;11.45;;
13981;SDS011;7065;50.880;5.502;2022-08-19T09:15:51;15.52;;;13.18;;
13981;SDS011;7065;50.880;5.502;2022-08-19T09:18:40;16.20;;;12.52;;
13981;SDS011;7065;50.880;5.502;2022-08-19T09:21:08;16.73;;;14.23;;
13981;SDS011;7065;50.880;5.502;2022-08-19T09:23:35;17.33;;;14.25;;
13981;SDS011;7065;50.880;5.502;2022-08-19T09:26:06;15.07;;;12.38;;
13981;SDS011;7065;50.880;5.502;2022-08-19T09:28:38;16.23;;;13.00;;
13981;SDS011;7065;50.880;5.502;2022-08-19T09:31:08;19.08;;;14.85;;
13981;SDS011;7065;50.880;5.502;2022-08-19T09:33:37;14.80;;;13.20;;
13981;SDS011;7065;50.880;5.502;2022-08-19T09:36:07;18.27;;;14.57;;
13981;SDS011;7065;50.880;5.502;2022-08-19T09:38:35;19.63;;;15.73;;
13981;SDS011;7065;50.880;5.502;2022-08-19T09:41:05;23.27;;;16.17;;
13981;SDS011;7065;50.880;5.502;2022-08-19T09:43:33;19.25;;;16.65;;
13981;SDS011;7065;50.880;5.502;2022-08-19T09:46:02;21.63;;;16.75;;
13981;SDS011;7065;50.880;5.502;2022-08-19T09:48:30;21.58;;;18.83;;
13981;SDS011;7065;50.880;5.502;2022-08-19T09:51:01;19.95;;;17.70;;
13981;SDS011;7065;50.880;5.502;2022-08-19T09:53:28;26.63;;;18.05;;
13981;SDS011;7065;50.880;5.502;2022-08-19T09:55:57;24.00;;;18.35;;
13981;SDS011;7065;50.880;5.502;2022-08-19T09:58:22;21.38;;;16.70;;
13981;SDS011;7065;50.880;5.502;2022-08-19T10:00:52;23.05;;;17.33;;
13981;SDS011;7065;50.880;5.502;2022-08-19T10:03:19;21.00;;;16.55;;
13981;SDS011;7065;50.880;5.502;2022-08-19T10:05:45;16.55;;;14.35;;
13981;SDS011;7065;50.880;5.502;2022-08-19T10:08:18;15.85;;;12.57;;
13981;SDS011;7065;50.880;5.502;2022-08-19T10:10:53;12.20;;;10.90;;
13981;SDS011;7065;50.880;5.502;2022-08-19T10:13:20;13.00;;;10.30;;
13981;SDS011;7065;50.880;5.502;2022-08-19T10:15:50;11.52;;;9.18;;
13981;SDS011;7065;50.880;5.502;2022-08-19T10:18:18;12.18;;;8.48;;
13981;SDS011;7065;50.880;5.502;2022-08-19T10:20:46;10.07;;;7.95;;
13981;SDS011;7065;50.880;5.502;2022-08-19T10:23:13;9.48;;;7.00;;
13981;SDS011;7065;50.880;5.502;2022-08-19T10:25:40;8.93;;;7.30;;
13981;SDS011;7065;50.880;5.502;2022-08-19T10:28:06;9.23;;;7.57;;
13981;SDS011;7065;50.880;5.502;2022-08-19T10:30:32;9.70;;;7.82;;
13981;SDS011;7065;50.880;5.502;2022-08-19T10:33:00;9.15;;;7.40;;
13981;SDS011;7065;50.880;5.502;2022-08-19T10:35:26;9.65;;;7.47;;
13981;SDS011;7065;50.880;5.502;2022-08-19T10:37:53;8.90;;;7.65;;
13981;SDS011;7065;50.880;5.502;2022-08-19T10:40:19;8.80;;;6.90;;
13981;SDS011;7065;50.880;5.502;2022-08-19T10:42:45;9.55;;;7.38;;
13981;SDS011;7065;50.880;5.502;2022-08-19T10:45:10;10.38;;;7.28;;
13981;SDS011;7065;50.880;5.502;2022-08-19T10:47:36;8.32;;;6.68;;
13981;SDS011;7065;50.880;5.502;2022-08-19T10:50:02;6.82;;;6.13;;
13981;SDS011;7065;50.880;5.502;2022-08-19T10:52:49;7.75;;;6.18;;
13981;SDS011;7065;50.880;5.502;2022-08-19T10:55:15;7.70;;;6.47;;
13981;SDS011;7065;50.880;5.502;2022-08-19T10:58:09;7.40;;;6.00;;
13981;SDS011;7065;50.880;5.502;2022-08-19T11:00:39;5.70;;;5.10;;
13981;SDS011;7065;50.880;5.502;2022-08-19T11:03:06;9.60;;;5.45;;
13981;SDS011;7065;50.880;5.502;2022-08-19T11:05:32;8.80;;;6.07;;
13981;SDS011;7065;50.880;5.502;2022-08-19T11:07:57;8.50;;;5.75;;
13981;SDS011;7065;50.880;5.502;2022-08-19T11:10:23;5.97;;;5.15;;
13981;SDS011;7065;50.880;5.502;2022-08-19T11:12:49;5.63;;;5.00;;
13981;SDS011;7065;50.880;5.502;2022-08-19T11:15:19;5.28;;;4.75;;
13981;SDS011;7065;50.880;5.502;2022-08-19T11:17:45;4.90;;;4.40;;
13981;SDS011;7065;50.880;5.502;2022-08-19T11:20:11;7.43;;;4.20;;
13981;SDS011;7065;50.880;5.502;2022-08-19T11:22:39;6.75;;;3.78;;
13981;SDS011;7065;50.880;5.502;2022-08-19T11:25:06;6.45;;;4.40;;
13981;SDS011;7065;50.880;5.502;2022-08-19T11:27:32;4.63;;;3.65;;
13981;SDS011;7065;50.880;5.502;2022-08-19T11:29:59;4.50;;;4.00;;
13981;SDS011;7065;50.880;5.502;2022-08-19T11:32:25;5.45;;;3.92;;
13981;SDS011;7065;50.880;5.502;2022-08-19T11:34:52;6.00;;;4.15;;
13981;SDS011;7065;50.880;5.502;2022-08-19T11:37:17;5.45;;;3.97;;
13981;SDS011;7065;50.880;5.502;2022-08-19T11:39:43;4.95;;;4.25;;
13981;SDS011;7065;50.880;5.502;2022-08-19T11:42:09;4.97;;;4.30;;
13981;SDS011;7065;50.880;5.502;2022-08-19T11:44:54;6.45;;;4.57;;
13981;SDS011;7065;50.880;5.502;2022-08-19T11:47:19;4.85;;;4.18;;
13981;SDS011;7065;50.880;5.502;2022-08-19T11:49:46;4.88;;;4.40;;
13981;SDS011;7065;50.880;5.502;2022-08-19T11:52:12;4.55;;;4.15;;
13981;SDS011;7065;50.880;5.502;2022-08-19T11:54:38;5.35;;;4.35;;
13981;SDS011;7065;50.880;5.502;2022-08-19T11:57:03;5.35;;;4.18;;
13981;SDS011;7065;50.880;5.502;2022-08-19T11:59:30;5.82;;;4.13;;
13981;SDS011;7065;50.880;5.502;2022-08-19T12:01:55;5.38;;;3.55;;
13981;SDS011;7065;50.880;5.502;2022-08-19T12:04:22;6.25;;;4.50;;
13981;SDS011;7065;50.880;5.502;2022-08-19T12:06:48;5.57;;;4.47;;
13981;SDS011;7065;50.880;5.502;2022-08-19T12:09:15;4.63;;;4.15;;
13981;SDS011;7065;50.880;5.502;2022-08-19T12:11:42;4.82;;;3.90;;
13981;SDS011;7065;50.880;5.502;2022-08-19T12:14:09;4.53;;;3.50;;
13981;SDS011;7065;50.880;5.502;2022-08-19T12:16:36;4.53;;;4.15;;
13981;SDS011;7065;50.880;5.502;2022-08-19T12:19:03;6.88;;;4.28;;
13981;SDS011;7065;50.880;5.502;2022-08-19T12:21:30;4.15;;;3.60;;
13981;SDS011;7065;50.880;5.502;2022-08-19T12:23:58;4.82;;;3.67;;
13981;SDS011;7065;50.880;5.502;2022-08-19T12:26:26;6.72;;;3.95;;
13981;SDS011;7065;50.880;5.502;2022-08-19T12:28:53;4.90;;;3.72;;
13981;SDS011;7065;50.880;5.502;2022-08-19T12:31:19;6.43;;;3.72;;
13981;SDS011;7065;50.880;5.502;2022-08-19T12:33:45;4.82;;;3.85;;
13981;SDS011;7065;50.880;5.502;2022-08-19T12:36:13;5.50;;;3.97;;
13981;SDS011;7065;50.880;5.502;2022-08-19T12:38:40;4.78;;;4.10;;
13981;SDS011;7065;50.880;5.502;2022-08-19T12:41:08;4.85;;;4.00;;
13981;SDS011;7065;50.880;5.502;2022-08-19T12:43:36;4.43;;;3.92;;
13981;SDS011;7065;50.880;5.502;2022-08-19T12:46:06;5.07;;;4.40;;
13981;SDS011;7065;50.880;5.502;2022-08-19T12:48:33;33.83;;;16.13;;
13981;SDS011;7065;50.880;5.502;2022-08-19T12:50:59;6.43;;;4.55;;
13981;SDS011;7065;50.880;5.502;2022-08-19T12:53:24;6.47;;;4.78;;
13981;SDS011;7065;50.880;5.502;2022-08-19T12:55:58;5.15;;;3.90;;
13981;SDS011;7065;50.880;5.502;2022-08-19T12:58:24;6.78;;;5.20;;
13981;SDS011;7065;50.880;5.502;2022-08-19T13:00:51;8.57;;;4.97;;
13981;SDS011;7065;50.880;5.502;2022-08-19T13:03:17;5.22;;;4.72;;
13981;SDS011;7065;50.880;5.502;2022-08-19T13:05:43;5.35;;;4.85;;
13981;SDS011;7065;50.880;5.502;2022-08-19T13:08:09;6.63;;;5.25;;
13981;SDS011;7065;50.880;5.502;2022-08-19T13:10:36;5.65;;;4.13;;
13981;SDS011;7065;50.880;5.502;2022-08-19T13:13:06;4.45;;;4.03;;
13981;SDS011;7065;50.880;5.502;2022-08-19T13:15:35;4.22;;;3.30;;
13981;SDS011;7065;50.880;5.502;2022-08-19T13:18:04;4.50;;;3.80;;
13981;SDS011;7065;50.880;5.502;2022-08-19T13:20:31;4.88;;;4.40;;
13981;SDS011;7065;50.880;5.502;2022-08-19T13:22:56;6.40;;;4.32;;
13981;SDS011;7065;50.880;5.502;2022-08-19T13:25:23;6.40;;;3.72;;
13981;SDS011;7065;50.880;5.502;2022-08-19T13:27:49;3.97;;;3.05;;
13981;SDS011;7065;50.880;5.502;2022-08-19T13:30:16;4.97;;;4.18;;
13981;SDS011;7065;50.880;5.502;2022-08-19T13:33:01;7.65;;;4.88;;
13981;SDS011;7065;50.880;5.502;2022-08-19T13:35:36;4.43;;;4.03;;
13981;SDS011;7065;50.880;5.502;2022-08-19T13:38:06;6.63;;;4.38;;
13981;SDS011;7065;50.880;5.502;2022-08-19T13:40:32;5.75;;;4.40;;
13981;SDS011;7065;50.880;5.502;2022-08-19T13:42:58;6.20;;;4.05;;
13981;SDS011;7065;50.880;5.502;2022-08-19T13:45:25;4.53;;;4.13;;
13981;SDS011;7065;50.880;5.502;2022-08-19T13:47:53;5.32;;;3.95;;
13981;SDS011;7065;50.880;5.502;2022-08-19T13:50:23;4.28;;;3.88;;
13981;SDS011;7065;50.880;5.502;2022-08-19T13:52:51;6.47;;;3.75;;
13981;SDS011;7065;50.880;5.502;2022-08-19T13:55:18;4.90;;;3.47;;
13981;SDS011;7065;50.880;5.502;2022-08-19T13:57:45;4.07;;;3.40;;
13981;SDS011;7065;50.880;5.502;2022-08-19T14:00:15;11.43;;;3.83;;
13981;SDS011;7065;50.880;5.502;2022-08-19T14:02:42;3.42;;;3.10;;
13981;SDS011;7065;50.880;5.502;2022-08-19T14:05:10;3.00;;;2.70;;
13981;SDS011;7065;50.880;5.502;2022-08-19T14:07:38;4.40;;;3.60;;
13981;SDS011;7065;50.880;5.502;2022-08-19T14:10:05;4.55;;;3.10;;
13981;SDS011;7065;50.880;5.502;2022-08-19T14:12:32;4.75;;;2.78;;
13981;SDS011;7065;50.880;5.502;2022-08-19T14:14:59;4.43;;;2.47;;
13981;SDS011;7065;50.880;5.502;2022-08-19T14:17:25;4.35;;;2.78;;
13981;SDS011;7065;50.880;5.502;2022-08-19T14:20:01;2.72;;;2.53;;
13981;SDS011;7065;50.880;5.502;2022-08-19T14:22:32;3.75;;;2.47;;
13981;SDS011;7065;50.880;5.502;2022-08-19T14:24:59;3.35;;;2.60;;
13981;SDS011;7065;50.880;5.502;2022-08-19T14:27:24;3.50;;;3.20;;
13981;SDS011;7065;50.880;5.502;2022-08-19T14:29:53;3.42;;;2.60;;
13981;SDS011;7065;50.880;5.502;2022-08-19T14:32:20;2.80;;;2.60;;
13981;SDS011;7065;50.880;5.502;2022-08-19T14:34:47;3.20;;;2.90;;
13981;SDS011;7065;50.880;5.502;2022-08-19T14:37:13;3.40;;;3.08;;
13981;SDS011;7065;50.880;5.502;2022-08-19T14:39:41;3.75;;;3.03;;
13981;SDS011;7065;50.880;5.502;2022-08-19T14:42:07;4.82;;;3.30;;
13981;SDS011;7065;50.880;5.502;2022-08-19T14:44:34;5.07;;;2.70;;
13981;SDS011;7065;50.880;5.502;2022-08-19T14:47:01;2.50;;;2.30;;
13981;SDS011;7065;50.880;5.502;2022-08-19T14:49:27;3.40;;;3.10;;
13981;SDS011;7065;50.880;5.502;2022-08-19T14:51:53;4.65;;;3.47;;
13981;SDS011;7065;50.880;5.502;2022-08-19T14:54:19;3.50;;;3.17;;
13981;SDS011;7065;50.880;5.502;2022-08-19T14:56:46;4.38;;;3.67;;
13981;SDS011;7065;50.880;5.502;2022-08-19T14:59:12;3.92;;;3.35;;
13981;SDS011;7065;50.880;5.502;2022-08-19T15:01:37;4.88;;;3.83;;